sensor_id;sensor_type;location;lat;lon;timestamp;P1;durP1;ratioP1;P2;durP2;ratioP2
65871;SDS011;52653;50.080;21.992;2022-07-17T00:00:20;6.00;;;2.70;;
65871;SDS011;52653;50.080;21.992;2022-07-17T00:03:14;5.20;;;2.50;;
65871;SDS011;52653;50.080;21.992;2022-07-17T00:06:08;5.20;;;2.70;;
65871;SDS011;52653;50.080;21.992;2022-07-17T00:09:01;7.90;;;3.10;;
65871;SDS011;52653;50.080;21.992;2022-07-17T00:11:56;5.40;;;2.80;;
65871;SDS011;52653;50.080;21.992;2022-07-17T00:14:48;6.30;;;2.80;;
65871;SDS011;52653;50.080;21.992;2022-07-17T00:17:41;6.90;;;3.40;;
65871;SDS011;52653;50.080;21.992;2022-07-17T00:20:33;6.80;;;3.00;;
65871;SDS011;52653;50.080;21.992;2022-07-17T00:23:26;5.80;;;3.20;;
65871;SDS011;52653;50.080;21.992;2022-07-17T00:26:20;8.20;;;4.00;;
65871;SDS011;52653;50.080;21.992;2022-07-17T00:29:12;6.90;;;3.60;;
65871;SDS011;52653;50.080;21.992;2022-07-17T00:32:06;8.00;;;3.50;;
65871;SDS011;52653;50.080;21.992;2022-07-17T00:34:42;6.40;;;3.60;;
65871;SDS011;52653;50.080;21.992;2022-07-17T00:37:38;7.20;;;3.60;;
65871;SDS011;52653;50.080;21.992;2022-07-17T00:40:30;6.90;;;4.00;;
65871;SDS011;52653;50.080;21.992;2022-07-17T00:43:23;7.10;;;3.90;;
65871;SDS011;52653;50.080;21.992;2022-07-17T00:46:16;6.70;;;4.00;;
65871;SDS011;52653;50.080;21.992;2022-07-17T00:49:10;6.70;;;3.90;;
65871;SDS011;52653;50.080;21.992;2022-07-17T00:52:04;6.80;;;3.80;;
65871;SDS011;52653;50.080;21.992;2022-07-17T00:54:56;8.10;;;4.10;;
65871;SDS011;52653;50.080;21.992;2022-07-17T00:58:10;6.60;;;3.20;;
65871;SDS011;52653;50.080;21.992;2022-07-17T01:01:04;6.80;;;3.90;;
65871;SDS011;52653;50.080;21.992;2022-07-17T01:03:57;7.10;;;3.50;;
65871;SDS011;52653;50.080;21.992;2022-07-17T01:06:50;7.40;;;3.70;;
65871;SDS011;52653;50.080;21.992;2022-07-17T01:09:42;6.40;;;3.30;;
65871;SDS011;52653;50.080;21.992;2022-07-17T01:12:34;7.70;;;3.70;;
65871;SDS011;52653;50.080;21.992;2022-07-17T01:15:29;8.60;;;3.60;;
65871;SDS011;52653;50.080;21.992;2022-07-17T01:18:22;5.70;;;3.30;;
65871;SDS011;52653;50.080;21.992;2022-07-17T01:21:15;7.90;;;3.30;;
65871;SDS011;52653;50.080;21.992;2022-07-17T01:24:07;7.60;;;3.20;;
65871;SDS011;52653;50.080;21.992;2022-07-17T01:26:59;7.30;;;4.00;;
65871;SDS011;52653;50.080;21.992;2022-07-17T01:29:51;7.40;;;3.60;;
65871;SDS011;52653;50.080;21.992;2022-07-17T01:32:46;8.60;;;3.70;;
65871;SDS011;52653;50.080;21.992;2022-07-17T01:35:39;7.00;;;3.30;;
65871;SDS011;52653;50.080;21.992;2022-07-17T01:38:32;5.40;;;2.90;;
65871;SDS011;52653;50.080;21.992;2022-07-17T01:41:25;6.90;;;3.30;;
65871;SDS011;52653;50.080;21.992;2022-07-17T01:44:18;6.70;;;3.10;;
65871;SDS011;52653;50.080;21.992;2022-07-17T01:47:12;7.10;;;3.60;;
65871;SDS011;52653;50.080;21.992;2022-07-17T01:50:06;5.80;;;3.10;;
65871;SDS011;52653;50.080;21.992;2022-07-17T01:53:03;6.20;;;3.30;;
65871;SDS011;52653;50.080;21.992;2022-07-17T01:55:55;8.60;;;3.40;;
65871;SDS011;52653;50.080;21.992;2022-07-17T01:58:42;7.70;;;3.80;;
65871;SDS011;52653;50.080;21.992;2022-07-17T02:01:35;6.60;;;3.50;;
65871;SDS011;52653;50.080;21.992;2022-07-17T02:04:27;8.30;;;3.70;;
65871;SDS011;52653;50.080;21.992;2022-07-17T02:07:13;9.40;;;3.80;;
65871;SDS011;52653;50.080;21.992;2022-07-17T02:10:06;7.20;;;4.00;;
65871;SDS011;52653;50.080;21.992;2022-07-17T02:13:00;8.00;;;4.30;;
65871;SDS011;52653;50.080;21.992;2022-07-17T02:15:52;8.00;;;4.10;;
65871;SDS011;52653;50.080;21.992;2022-07-17T02:18:45;7.60;;;3.80;;
65871;SDS011;52653;50.080;21.992;2022-07-17T02:21:38;8.60;;;3.90;;
65871;SDS011;52653;50.080;21.992;2022-07-17T02:24:30;9.40;;;4.30;;
65871;SDS011;52653;50.080;21.992;2022-07-17T02:27:23;9.80;;;3.90;;
65871;SDS011;52653;50.080;21.992;2022-07-17T02:30:17;7.20;;;4.20;;
65871;SDS011;52653;50.080;21.992;2022-07-17T02:33:09;9.70;;;4.00;;
65871;SDS011;52653;50.080;21.992;2022-07-17T02:36:05;6.10;;;3.80;;
65871;SDS011;52653;50.080;21.992;2022-07-17T02:38:57;7.00;;;4.20;;
65871;SDS011;52653;50.080;21.992;2022-07-17T02:41:51;7.60;;;3.60;;
65871;SDS011;52653;50.080;21.992;2022-07-17T02:44:43;7.80;;;3.60;;
65871;SDS011;52653;50.080;21.992;2022-07-17T02:47:35;7.90;;;3.90;;
65871;SDS011;52653;50.080;21.992;2022-07-17T02:50:28;7.70;;;3.60;;
65871;SDS011;52653;50.080;21.992;2022-07-17T02:53:20;6.00;;;3.50;;
65871;SDS011;52653;50.080;21.992;2022-07-17T02:56:12;9.20;;;3.70;;
65871;SDS011;52653;50.080;21.992;2022-07-17T02:59:04;5.10;;;3.00;;
65871;SDS011;52653;50.080;21.992;2022-07-17T03:01:57;7.70;;;4.00;;
65871;SDS011;52653;50.080;21.992;2022-07-17T03:04:49;8.20;;;3.60;;
65871;SDS011;52653;50.080;21.992;2022-07-17T03:07:41;8.60;;;3.60;;
65871;SDS011;52653;50.080;21.992;2022-07-17T03:10:34;6.40;;;3.20;;
65871;SDS011;52653;50.080;21.992;2022-07-17T03:13:27;6.90;;;3.30;;
65871;SDS011;52653;50.080;21.992;2022-07-17T03:16:19;9.40;;;3.70;;
65871;SDS011;52653;50.080;21.992;2022-07-17T03:19:12;6.70;;;3.50;;
65871;SDS011;52653;50.080;21.992;2022-07-17T03:22:05;7.10;;;3.20;;
65871;SDS011;52653;50.080;21.992;2022-07-17T03:24:58;7.90;;;3.50;;
65871;SDS011;52653;50.080;21.992;2022-07-17T03:27:50;8.60;;;3.60;;
65871;SDS011;52653;50.080;21.992;2022-07-17T03:30:43;7.40;;;3.70;;
65871;SDS011;52653;50.080;21.992;2022-07-17T03:33:35;7.40;;;2.90;;
65871;SDS011;52653;50.080;21.992;2022-07-17T03:36:27;8.60;;;3.70;;
65871;SDS011;52653;50.080;21.992;2022-07-17T03:39:20;6.90;;;3.80;;
65871;SDS011;52653;50.080;21.992;2022-07-17T03:42:14;7.00;;;3.20;;
65871;SDS011;52653;50.080;21.992;2022-07-17T03:45:09;6.40;;;3.00;;
65871;SDS011;52653;50.080;21.992;2022-07-17T03:48:01;8.60;;;3.00;;
65871;SDS011;52653;50.080;21.992;2022-07-17T03:50:53;6.00;;;3.30;;
65871;SDS011;52653;50.080;21.992;2022-07-17T03:53:46;8.00;;;3.20;;
65871;SDS011;52653;50.080;21.992;2022-07-17T03:56:42;9.30;;;3.40;;
65871;SDS011;52653;50.080;21.992;2022-07-17T03:59:34;7.70;;;3.40;;
65871;SDS011;52653;50.080;21.992;2022-07-17T04:02:27;7.70;;;2.80;;
65871;SDS011;52653;50.080;21.992;2022-07-17T04:05:19;6.90;;;2.90;;
65871;SDS011;52653;50.080;21.992;2022-07-17T04:08:13;8.60;;;2.80;;
65871;SDS011;52653;50.080;21.992;2022-07-17T04:11:09;7.60;;;2.80;;
65871;SDS011;52653;50.080;21.992;2022-07-17T04:14:02;8.10;;;3.00;;
65871;SDS011;52653;50.080;21.992;2022-07-17T04:16:54;7.10;;;2.90;;
65871;SDS011;52653;50.080;21.992;2022-07-17T04:19:49;8.20;;;2.70;;
65871;SDS011;52653;50.080;21.992;2022-07-17T04:22:35;9.20;;;2.80;;
65871;SDS011;52653;50.080;21.992;2022-07-17T04:25:27;8.20;;;2.80;;
65871;SDS011;52653;50.080;21.992;2022-07-17T04:28:19;7.50;;;3.10;;
65871;SDS011;52653;50.080;21.992;2022-07-17T04:31:05;6.40;;;2.60;;
65871;SDS011;52653;50.080;21.992;2022-07-17T04:33:58;6.30;;;2.70;;
65871;SDS011;52653;50.080;21.992;2022-07-17T04:36:49;5.10;;;2.50;;
65871;SDS011;52653;50.080;21.992;2022-07-17T04:39:42;10.30;;;2.90;;
65871;SDS011;52653;50.080;21.992;2022-07-17T04:42:27;5.80;;;2.30;;
65871;SDS011;52653;50.080;21.992;2022-07-17T04:45:22;6.70;;;2.10;;
65871;SDS011;52653;50.080;21.992;2022-07-17T04:48:15;4.60;;;2.10;;
65871;SDS011;52653;50.080;21.992;2022-07-17T04:51:07;5.70;;;2.10;;
65871;SDS011;52653;50.080;21.992;2022-07-17T04:54:00;5.00;;;1.90;;
65871;SDS011;52653;50.080;21.992;2022-07-17T04:56:55;5.30;;;2.00;;
65871;SDS011;52653;50.080;21.992;2022-07-17T04:59:48;4.70;;;2.00;;
65871;SDS011;52653;50.080;21.992;2022-07-17T05:02:40;4.50;;;2.10;;
65871;SDS011;52653;50.080;21.992;2022-07-17T05:05:25;5.20;;;1.90;;
65871;SDS011;52653;50.080;21.992;2022-07-17T05:08:18;6.70;;;2.10;;
65871;SDS011;52653;50.080;21.992;2022-07-17T05:11:10;6.60;;;2.10;;
65871;SDS011;52653;50.080;21.992;2022-07-17T05:14:02;6.60;;;2.00;;
65871;SDS011;52653;50.080;21.992;2022-07-17T05:16:54;4.20;;;1.70;;
65871;SDS011;52653;50.080;21.992;2022-07-17T05:19:46;5.70;;;2.00;;
65871;SDS011;52653;50.080;21.992;2022-07-17T05:22:38;4.80;;;2.10;;
65871;SDS011;52653;50.080;21.992;2022-07-17T05:25:31;4.40;;;2.00;;
65871;SDS011;52653;50.080;21.992;2022-07-17T05:28:16;5.00;;;1.70;;
65871;SDS011;52653;50.080;21.992;2022-07-17T05:31:08;6.10;;;1.70;;
65871;SDS011;52653;50.080;21.992;2022-07-17T05:34:00;5.50;;;1.90;;
65871;SDS011;52653;50.080;21.992;2022-07-17T05:36:53;3.80;;;1.60;;
65871;SDS011;52653;50.080;21.992;2022-07-17T05:39:38;6.30;;;2.10;;
65871;SDS011;52653;50.080;21.992;2022-07-17T05:42:30;8.50;;;2.40;;
65871;SDS011;52653;50.080;21.992;2022-07-17T05:45:24;7.40;;;2.00;;
65871;SDS011;52653;50.080;21.992;2022-07-17T05:48:16;9.70;;;2.60;;
65871;SDS011;52653;50.080;21.992;2022-07-17T05:51:01;7.00;;;2.10;;
65871;SDS011;52653;50.080;21.992;2022-07-17T05:54:00;4.40;;;1.90;;
65871;SDS011;52653;50.080;21.992;2022-07-17T05:56:52;5.60;;;1.90;;
65871;SDS011;52653;50.080;21.992;2022-07-17T05:59:45;3.40;;;1.70;;
65871;SDS011;52653;50.080;21.992;2022-07-17T06:02:37;6.50;;;2.20;;
65871;SDS011;52653;50.080;21.992;2022-07-17T06:05:29;5.90;;;1.80;;
65871;SDS011;52653;50.080;21.992;2022-07-17T06:08:21;5.20;;;1.70;;
65871;SDS011;52653;50.080;21.992;2022-07-17T06:11:13;5.30;;;2.20;;
65871;SDS011;52653;50.080;21.992;2022-07-17T06:14:10;4.10;;;1.60;;
65871;SDS011;52653;50.080;21.992;2022-07-17T06:17:02;6.60;;;2.00;;
65871;SDS011;52653;50.080;21.992;2022-07-17T06:19:55;6.10;;;2.30;;
65871;SDS011;52653;50.080;21.992;2022-07-17T06:22:39;5.30;;;2.10;;
65871;SDS011;52653;50.080;21.992;2022-07-17T06:25:32;5.20;;;1.60;;
65871;SDS011;52653;50.080;21.992;2022-07-17T06:28:25;7.00;;;1.60;;
65871;SDS011;52653;50.080;21.992;2022-07-17T06:31:17;4.50;;;1.80;;
65871;SDS011;52653;50.080;21.992;2022-07-17T06:34:11;6.00;;;1.60;;
65871;SDS011;52653;50.080;21.992;2022-07-17T06:37:03;4.70;;;1.70;;
65871;SDS011;52653;50.080;21.992;2022-07-17T06:39:55;5.30;;;1.70;;
65871;SDS011;52653;50.080;21.992;2022-07-17T06:42:47;3.80;;;1.40;;
65871;SDS011;52653;50.080;21.992;2022-07-17T06:45:40;5.70;;;1.40;;
65871;SDS011;52653;50.080;21.992;2022-07-17T06:48:25;3.80;;;1.40;;
65871;SDS011;52653;50.080;21.992;2022-07-17T06:51:18;4.30;;;1.30;;
65871;SDS011;52653;50.080;21.992;2022-07-17T06:54:10;4.30;;;1.50;;
65871;SDS011;52653;50.080;21.992;2022-07-17T06:57:02;5.40;;;1.40;;
65871;SDS011;52653;50.080;21.992;2022-07-17T06:59:55;6.30;;;1.60;;
65871;SDS011;52653;50.080;21.992;2022-07-17T07:02:47;3.40;;;1.20;;
65871;SDS011;52653;50.080;21.992;2022-07-17T07:05:39;5.60;;;1.40;;
65871;SDS011;52653;50.080;21.992;2022-07-17T07:08:32;4.70;;;1.40;;
65871;SDS011;52653;50.080;21.992;2022-07-17T07:11:25;5.20;;;1.50;;
65871;SDS011;52653;50.080;21.992;2022-07-17T07:14:18;5.60;;;1.50;;
65871;SDS011;52653;50.080;21.992;2022-07-17T07:17:11;4.50;;;1.60;;
65871;SDS011;52653;50.080;21.992;2022-07-17T07:19:53;4.70;;;1.40;;
65871;SDS011;52653;50.080;21.992;2022-07-17T07:22:45;2.70;;;1.10;;
65871;SDS011;52653;50.080;21.992;2022-07-17T07:25:37;3.70;;;1.30;;
65871;SDS011;52653;50.080;21.992;2022-07-17T07:28:29;6.70;;;1.30;;
65871;SDS011;52653;50.080;21.992;2022-07-17T07:31:23;3.30;;;1.40;;
65871;SDS011;52653;50.080;21.992;2022-07-17T07:34:15;4.80;;;1.30;;
65871;SDS011;52653;50.080;21.992;2022-07-17T07:37:08;4.50;;;1.20;;
65871;SDS011;52653;50.080;21.992;2022-07-17T07:40:00;5.20;;;1.10;;
65871;SDS011;52653;50.080;21.992;2022-07-17T07:42:51;5.20;;;1.20;;
65871;SDS011;52653;50.080;21.992;2022-07-17T07:45:43;4.40;;;1.00;;
65871;SDS011;52653;50.080;21.992;2022-07-17T07:48:37;3.80;;;1.00;;
65871;SDS011;52653;50.080;21.992;2022-07-17T07:51:29;2.60;;;1.20;;
65871;SDS011;52653;50.080;21.992;2022-07-17T07:54:41;3.50;;;1.10;;
65871;SDS011;52653;50.080;21.992;2022-07-17T07:57:34;3.10;;;1.00;;
65871;SDS011;52653;50.080;21.992;2022-07-17T08:00:26;4.60;;;1.10;;
65871;SDS011;52653;50.080;21.992;2022-07-17T08:03:19;4.00;;;1.00;;
65871;SDS011;52653;50.080;21.992;2022-07-17T08:06:02;3.90;;;1.20;;
65871;SDS011;52653;50.080;21.992;2022-07-17T08:08:54;3.80;;;1.00;;
65871;SDS011;52653;50.080;21.992;2022-07-17T08:11:46;3.40;;;1.00;;
65871;SDS011;52653;50.080;21.992;2022-07-17T08:14:40;4.00;;;1.00;;
65871;SDS011;52653;50.080;21.992;2022-07-17T08:17:31;4.30;;;1.00;;
65871;SDS011;52653;50.080;21.992;2022-07-17T08:20:31;2.80;;;1.00;;
65871;SDS011;52653;50.080;21.992;2022-07-17T08:23:24;3.00;;;1.10;;
65871;SDS011;52653;50.080;21.992;2022-07-17T08:26:17;2.60;;;1.30;;
65871;SDS011;52653;50.080;21.992;2022-07-17T08:29:09;3.90;;;0.80;;
65871;SDS011;52653;50.080;21.992;2022-07-17T08:32:01;5.60;;;1.00;;
65871;SDS011;52653;50.080;21.992;2022-07-17T08:34:55;3.90;;;1.10;;
65871;SDS011;52653;50.080;21.992;2022-07-17T08:37:48;3.50;;;1.10;;
65871;SDS011;52653;50.080;21.992;2022-07-17T08:40:42;4.10;;;1.00;;
65871;SDS011;52653;50.080;21.992;2022-07-17T08:43:37;2.50;;;1.00;;
65871;SDS011;52653;50.080;21.992;2022-07-17T08:46:31;3.00;;;1.10;;
65871;SDS011;52653;50.080;21.992;2022-07-17T08:49:26;4.10;;;1.00;;
65871;SDS011;52653;50.080;21.992;2022-07-17T08:52:10;3.30;;;1.10;;
65871;SDS011;52653;50.080;21.992;2022-07-17T08:55:07;3.80;;;1.30;;
65871;SDS011;52653;50.080;21.992;2022-07-17T08:58:01;2.60;;;1.10;;
65871;SDS011;52653;50.080;21.992;2022-07-17T09:00:55;3.60;;;0.80;;
65871;SDS011;52653;50.080;21.992;2022-07-17T09:03:55;1.90;;;0.70;;
65871;SDS011;52653;50.080;21.992;2022-07-17T09:06:56;2.00;;;0.80;;
65871;SDS011;52653;50.080;21.992;2022-07-17T09:09:50;1.80;;;0.90;;
65871;SDS011;52653;50.080;21.992;2022-07-17T09:12:42;2.90;;;1.10;;
65871;SDS011;52653;50.080;21.992;2022-07-17T09:15:36;3.10;;;0.90;;
65871;SDS011;52653;50.080;21.992;2022-07-17T09:18:42;1.90;;;0.80;;
65871;SDS011;52653;50.080;21.992;2022-07-17T09:21:36;2.60;;;0.80;;
65871;SDS011;52653;50.080;21.992;2022-07-17T09:24:42;3.00;;;1.10;;
65871;SDS011;52653;50.080;21.992;2022-07-17T09:27:36;2.30;;;0.90;;
65871;SDS011;52653;50.080;21.992;2022-07-17T09:30:28;2.10;;;0.90;;
65871;SDS011;52653;50.080;21.992;2022-07-17T09:33:22;2.00;;;0.80;;
65871;SDS011;52653;50.080;21.992;2022-07-17T09:36:18;3.30;;;0.90;;
65871;SDS011;52653;50.080;21.992;2022-07-17T09:39:10;1.90;;;0.70;;
65871;SDS011;52653;50.080;21.992;2022-07-17T09:41:56;3.20;;;0.80;;
65871;SDS011;52653;50.080;21.992;2022-07-17T09:44:55;1.40;;;0.60;;
65871;SDS011;52653;50.080;21.992;2022-07-17T09:47:48;2.30;;;0.80;;
65871;SDS011;52653;50.080;21.992;2022-07-17T09:50:43;3.60;;;1.10;;
65871;SDS011;52653;50.080;21.992;2022-07-17T09:53:36;2.20;;;0.70;;
65871;SDS011;52653;50.080;21.992;2022-07-17T09:56:29;4.80;;;0.90;;
65871;SDS011;52653;50.080;21.992;2022-07-17T09:59:23;2.50;;;0.80;;
65871;SDS011;52653;50.080;21.992;2022-07-17T10:02:20;1.80;;;0.50;;
65871;SDS011;52653;50.080;21.992;2022-07-17T10:05:13;3.20;;;0.90;;
65871;SDS011;52653;50.080;21.992;2022-07-17T10:08:04;2.60;;;0.80;;
65871;SDS011;52653;50.080;21.992;2022-07-17T10:10:57;2.60;;;1.00;;
65871;SDS011;52653;50.080;21.992;2022-07-17T10:13:51;1.30;;;0.70;;
65871;SDS011;52653;50.080;21.992;2022-07-17T10:16:44;2.90;;;0.80;;
65871;SDS011;52653;50.080;21.992;2022-07-17T10:19:44;2.10;;;0.70;;
65871;SDS011;52653;50.080;21.992;2022-07-17T10:22:42;1.50;;;0.70;;
65871;SDS011;52653;50.080;21.992;2022-07-17T10:25:36;1.90;;;0.60;;
65871;SDS011;52653;50.080;21.992;2022-07-17T10:28:38;2.10;;;0.60;;
65871;SDS011;52653;50.080;21.992;2022-07-17T10:31:34;1.50;;;0.70;;
65871;SDS011;52653;50.080;21.992;2022-07-17T10:34:40;1.30;;;0.60;;
65871;SDS011;52653;50.080;21.992;2022-07-17T10:37:30;1.60;;;0.50;;
65871;SDS011;52653;50.080;21.992;2022-07-17T10:40:30;2.50;;;0.80;;
65871;SDS011;52653;50.080;21.992;2022-07-17T10:43:23;2.10;;;0.80;;
65871;SDS011;52653;50.080;21.992;2022-07-17T10:46:15;1.60;;;0.70;;
65871;SDS011;52653;50.080;21.992;2022-07-17T10:49:09;2.60;;;0.90;;
65871;SDS011;52653;50.080;21.992;2022-07-17T10:52:01;2.30;;;0.70;;
65871;SDS011;52653;50.080;21.992;2022-07-17T10:54:54;1.90;;;0.70;;
65871;SDS011;52653;50.080;21.992;2022-07-17T10:57:47;2.00;;;0.80;;
65871;SDS011;52653;50.080;21.992;2022-07-17T11:00:40;1.70;;;0.70;;
65871;SDS011;52653;50.080;21.992;2022-07-17T11:03:35;3.10;;;1.00;;
65871;SDS011;52653;50.080;21.992;2022-07-17T11:06:29;2.70;;;0.80;;
65871;SDS011;52653;50.080;21.992;2022-07-17T11:09:22;1.70;;;0.80;;
65871;SDS011;52653;50.080;21.992;2022-07-17T11:12:14;1.70;;;0.70;;
65871;SDS011;52653;50.080;21.992;2022-07-17T11:15:07;4.40;;;1.00;;
65871;SDS011;52653;50.080;21.992;2022-07-17T11:17:53;2.70;;;0.90;;
65871;SDS011;52653;50.080;21.992;2022-07-17T11:20:49;2.10;;;0.80;;
65871;SDS011;52653;50.080;21.992;2022-07-17T11:23:28;2.70;;;1.10;;
65871;SDS011;52653;50.080;21.992;2022-07-17T11:26:22;1.80;;;0.80;;
65871;SDS011;52653;50.080;21.992;2022-07-17T11:29:10;1.90;;;0.80;;
65871;SDS011;52653;50.080;21.992;2022-07-17T11:32:04;2.60;;;0.70;;
65871;SDS011;52653;50.080;21.992;2022-07-17T11:34:57;3.10;;;1.10;;
65871;SDS011;52653;50.080;21.992;2022-07-17T11:38:10;2.80;;;0.80;;
65871;SDS011;52653;50.080;21.992;2022-07-17T11:41:02;2.40;;;0.70;;
65871;SDS011;52653;50.080;21.992;2022-07-17T11:43:55;2.20;;;0.80;;
65871;SDS011;52653;50.080;21.992;2022-07-17T11:46:33;3.00;;;0.80;;
65871;SDS011;52653;50.080;21.992;2022-07-17T11:49:27;2.40;;;0.90;;
65871;SDS011;52653;50.080;21.992;2022-07-17T11:52:20;3.00;;;0.80;;
65871;SDS011;52653;50.080;21.992;2022-07-17T11:55:19;2.60;;;1.00;;
65871;SDS011;52653;50.080;21.992;2022-07-17T11:58:11;2.20;;;0.80;;
65871;SDS011;52653;50.080;21.992;2022-07-17T12:01:04;3.00;;;0.90;;
65871;SDS011;52653;50.080;21.992;2022-07-17T12:03:59;1.70;;;0.80;;
65871;SDS011;52653;50.080;21.992;2022-07-17T12:06:59;2.20;;;0.90;;
65871;SDS011;52653;50.080;21.992;2022-07-17T12:09:51;6.40;;;1.50;;
65871;SDS011;52653;50.080;21.992;2022-07-17T12:12:54;1.80;;;0.80;;
65871;SDS011;52653;50.080;21.992;2022-07-17T12:15:48;2.00;;;0.90;;
65871;SDS011;52653;50.080;21.992;2022-07-17T12:18:33;2.00;;;0.90;;
65871;SDS011;52653;50.080;21.992;2022-07-17T12:21:26;2.40;;;1.00;;
65871;SDS011;52653;50.080;21.992;2022-07-17T12:24:23;2.20;;;0.90;;
65871;SDS011;52653;50.080;21.992;2022-07-17T12:27:17;2.90;;;0.90;;
65871;SDS011;52653;50.080;21.992;2022-07-17T12:30:11;1.90;;;0.80;;
65871;SDS011;52653;50.080;21.992;2022-07-17T12:33:04;2.40;;;0.90;;
65871;SDS011;52653;50.080;21.992;2022-07-17T12:35:57;2.20;;;0.80;;
65871;SDS011;52653;50.080;21.992;2022-07-17T12:38:50;1.90;;;0.90;;
65871;SDS011;52653;50.080;21.992;2022-07-17T12:41:44;2.20;;;0.80;;
65871;SDS011;52653;50.080;21.992;2022-07-17T12:44:37;2.80;;;0.90;;
65871;SDS011;52653;50.080;21.992;2022-07-17T12:47:31;2.80;;;1.20;;
65871;SDS011;52653;50.080;21.992;2022-07-17T12:50:24;2.50;;;0.90;;
65871;SDS011;52653;50.080;21.992;2022-07-17T12:53:16;2.90;;;0.90;;
65871;SDS011;52653;50.080;21.992;2022-07-17T12:56:09;2.00;;;0.70;;
65871;SDS011;52653;50.080;21.992;2022-07-17T12:59:02;3.10;;;0.60;;
65871;SDS011;52653;50.080;21.992;2022-07-17T13:01:55;3.50;;;1.10;;
65871;SDS011;52653;50.080;21.992;2022-07-17T13:04:47;3.30;;;0.80;;
65871;SDS011;52653;50.080;21.992;2022-07-17T13:07:42;3.70;;;0.90;;
65871;SDS011;52653;50.080;21.992;2022-07-17T13:10:35;2.40;;;0.70;;
65871;SDS011;52653;50.080;21.992;2022-07-17T13:13:27;3.10;;;0.80;;
65871;SDS011;52653;50.080;21.992;2022-07-17T13:16:19;3.50;;;1.00;;
65871;SDS011;52653;50.080;21.992;2022-07-17T13:19:12;2.60;;;0.80;;
65871;SDS011;52653;50.080;21.992;2022-07-17T13:22:06;3.40;;;0.70;;
65871;SDS011;52653;50.080;21.992;2022-07-17T13:24:59;3.20;;;0.80;;
65871;SDS011;52653;50.080;21.992;2022-07-17T13:27:51;2.30;;;0.70;;
65871;SDS011;52653;50.080;21.992;2022-07-17T13:30:44;2.50;;;0.70;;
65871;SDS011;52653;50.080;21.992;2022-07-17T13:33:35;2.30;;;0.90;;
65871;SDS011;52653;50.080;21.992;2022-07-17T13:36:28;2.80;;;0.80;;
65871;SDS011;52653;50.080;21.992;2022-07-17T13:39:13;2.10;;;0.70;;
65871;SDS011;52653;50.080;21.992;2022-07-17T13:42:05;2.00;;;0.80;;
65871;SDS011;52653;50.080;21.992;2022-07-17T13:44:58;2.10;;;0.90;;
65871;SDS011;52653;50.080;21.992;2022-07-17T13:47:51;3.00;;;1.00;;
65871;SDS011;52653;50.080;21.992;2022-07-17T13:50:43;2.60;;;0.80;;
65871;SDS011;52653;50.080;21.992;2022-07-17T13:53:35;2.70;;;0.80;;
65871;SDS011;52653;50.080;21.992;2022-07-17T13:56:28;2.30;;;0.80;;
65871;SDS011;52653;50.080;21.992;2022-07-17T13:59:20;1.80;;;0.70;;
65871;SDS011;52653;50.080;21.992;2022-07-17T14:01:55;3.40;;;0.80;;
65871;SDS011;52653;50.080;21.992;2022-07-17T14:04:47;2.70;;;0.70;;
65871;SDS011;52653;50.080;21.992;2022-07-17T14:07:33;1.90;;;0.80;;
65871;SDS011;52653;50.080;21.992;2022-07-17T14:10:18;2.70;;;0.70;;
65871;SDS011;52653;50.080;21.992;2022-07-17T14:13:12;3.80;;;1.10;;
65871;SDS011;52653;50.080;21.992;2022-07-17T14:16:05;2.00;;;0.80;;
65871;SDS011;52653;50.080;21.992;2022-07-17T14:18:59;1.60;;;0.70;;
65871;SDS011;52653;50.080;21.992;2022-07-17T14:21:53;5.00;;;0.90;;
65871;SDS011;52653;50.080;21.992;2022-07-17T14:24:45;3.50;;;0.90;;
65871;SDS011;52653;50.080;21.992;2022-07-17T14:27:37;2.50;;;0.80;;
65871;SDS011;52653;50.080;21.992;2022-07-17T14:30:30;1.60;;;0.70;;
65871;SDS011;52653;50.080;21.992;2022-07-17T14:33:24;2.00;;;0.80;;
65871;SDS011;52653;50.080;21.992;2022-07-17T14:35:59;1.80;;;0.70;;
65871;SDS011;52653;50.080;21.992;2022-07-17T14:38:52;2.20;;;0.90;;
65871;SDS011;52653;50.080;21.992;2022-07-17T14:41:37;3.50;;;0.80;;
65871;SDS011;52653;50.080;21.992;2022-07-17T14:44:30;2.10;;;0.80;;
65871;SDS011;52653;50.080;21.992;2022-07-17T14:47:23;3.60;;;0.80;;
65871;SDS011;52653;50.080;21.992;2022-07-17T14:50:16;3.10;;;1.00;;
65871;SDS011;52653;50.080;21.992;2022-07-17T14:53:08;2.50;;;0.60;;
65871;SDS011;52653;50.080;21.992;2022-07-17T14:56:00;1.70;;;0.70;;
65871;SDS011;52653;50.080;21.992;2022-07-17T14:58:53;2.10;;;0.70;;
65871;SDS011;52653;50.080;21.992;2022-07-17T15:01:45;2.00;;;0.80;;
65871;SDS011;52653;50.080;21.992;2022-07-17T15:04:38;1.70;;;0.70;;
65871;SDS011;52653;50.080;21.992;2022-07-17T15:07:31;1.80;;;0.60;;
65871;SDS011;52653;50.080;21.992;2022-07-17T15:10:17;2.50;;;0.70;;
65871;SDS011;52653;50.080;21.992;2022-07-17T15:13:09;5.00;;;1.00;;
65871;SDS011;52653;50.080;21.992;2022-07-17T15:16:03;3.70;;;1.00;;
65871;SDS011;52653;50.080;21.992;2022-07-17T15:18:49;2.30;;;1.00;;
65871;SDS011;52653;50.080;21.992;2022-07-17T15:21:40;3.40;;;0.90;;
65871;SDS011;52653;50.080;21.992;2022-07-17T15:24:42;3.60;;;0.80;;
65871;SDS011;52653;50.080;21.992;2022-07-17T15:27:23;2.20;;;0.80;;
65871;SDS011;52653;50.080;21.992;2022-07-17T15:30:16;2.20;;;0.70;;
65871;SDS011;52653;50.080;21.992;2022-07-17T15:33:08;2.20;;;0.70;;
65871;SDS011;52653;50.080;21.992;2022-07-17T15:35:53;3.00;;;0.80;;
65871;SDS011;52653;50.080;21.992;2022-07-17T15:38:45;4.10;;;0.90;;
65871;SDS011;52653;50.080;21.992;2022-07-17T15:41:42;3.70;;;1.30;;
65871;SDS011;52653;50.080;21.992;2022-07-17T15:44:28;2.40;;;1.00;;
65871;SDS011;52653;50.080;21.992;2022-07-17T15:47:21;2.30;;;0.90;;
65871;SDS011;52653;50.080;21.992;2022-07-17T15:50:13;3.70;;;1.10;;
65871;SDS011;52653;50.080;21.992;2022-07-17T15:52:58;5.70;;;1.10;;
65871;SDS011;52653;50.080;21.992;2022-07-17T15:55:51;2.40;;;0.90;;
65871;SDS011;52653;50.080;21.992;2022-07-17T15:58:37;2.40;;;0.60;;
65871;SDS011;52653;50.080;21.992;2022-07-17T16:01:23;2.90;;;0.80;;
65871;SDS011;52653;50.080;21.992;2022-07-17T16:04:15;3.40;;;1.10;;
65871;SDS011;52653;50.080;21.992;2022-07-17T16:07:00;2.00;;;0.80;;
65871;SDS011;52653;50.080;21.992;2022-07-17T16:09:53;3.40;;;0.70;;
65871;SDS011;52653;50.080;21.992;2022-07-17T16:12:45;2.30;;;0.80;;
65871;SDS011;52653;50.080;21.992;2022-07-17T16:15:31;2.30;;;0.60;;
65871;SDS011;52653;50.080;21.992;2022-07-17T16:18:22;3.00;;;1.00;;
65871;SDS011;52653;50.080;21.992;2022-07-17T16:21:14;3.40;;;0.80;;
65871;SDS011;52653;50.080;21.992;2022-07-17T16:24:07;1.90;;;0.60;;
65871;SDS011;52653;50.080;21.992;2022-07-17T16:26:53;3.50;;;1.20;;
65871;SDS011;52653;50.080;21.992;2022-07-17T16:29:35;2.50;;;0.90;;
65871;SDS011;52653;50.080;21.992;2022-07-17T16:32:27;3.80;;;1.00;;
65871;SDS011;52653;50.080;21.992;2022-07-17T16:37:57;4.60;;;1.10;;
65871;SDS011;52653;50.080;21.992;2022-07-17T16:40:50;4.60;;;1.20;;
65871;SDS011;52653;50.080;21.992;2022-07-17T16:43:43;3.00;;;1.50;;
65871;SDS011;52653;50.080;21.992;2022-07-17T16:46:35;5.10;;;1.60;;
65871;SDS011;52653;50.080;21.992;2022-07-17T16:49:28;3.70;;;1.30;;
65871;SDS011;52653;50.080;21.992;2022-07-17T16:52:20;5.70;;;1.90;;
65871;SDS011;52653;50.080;21.992;2022-07-17T16:54:52;4.20;;;2.00;;
65871;SDS011;52653;50.080;21.992;2022-07-17T16:57:44;6.40;;;3.30;;
65871;SDS011;52653;50.080;21.992;2022-07-17T17:00:37;6.40;;;3.10;;
65871;SDS011;52653;50.080;21.992;2022-07-17T17:03:12;4.40;;;1.40;;